Time;durP1;ratioP1;P1;durP2;ratioP2;P2;SDS_P1;SDS_P2;PMS_P1;PMS_P2;Temp;Humidity;BMP_temperature;BMP_pressure;BME280_temperature;BME280_humidity;BME280_pressure;Samples;Min_cycle;Max_cycle;Signal;HPM_P1;HPM_P2
2024/03/07 00:02:20;;;;;;;6.23;5.63;;;4.10;99.90;;;;;;6178896;23;20245;-87
2024/03/07 00:04:46;;;;;;;4.40;4.03;;;4.30;99.90;;;;;;6179014;23;20281;-88
2024/03/07 00:07:12;;;;;;;6.43;4.30;;;4.00;99.90;;;;;;6167223;23;20298;-87
2024/03/07 00:09:38;;;;;;;4.30;4.00;;;4.50;99.90;;;;;;6153768;23;20198;-88
2024/03/07 00:12:07;;;;;;;3.67;3.47;;;4.20;99.90;;;;;;6153999;23;20241;-87
2024/03/07 00:14:35;;;;;;;3.83;3.37;;;3.90;99.90;;;;;;6154258;23;20175;-87
2024/03/07 00:17:02;;;;;;;8.03;5.63;;;4.40;99.90;;;;;;6154418;23;20256;-87
2024/03/07 00:19:29;;;;;;;4.07;3.27;;;4.50;99.90;;;;;;6178039;23;20214;-87
2024/03/07 00:21:56;;;;;;;4.07;3.73;;;4.30;99.90;;;;;;6178291;23;20202;-88
2024/03/07 00:24:23;;;;;;;13.50;4.63;;;4.50;99.90;;;;;;6178494;23;20221;-88
2024/03/07 00:26:50;;;;;;;5.47;4.97;;;4.60;99.90;;;;;;6179263;23;20922;-87
2024/03/07 00:29:19;;;;;;;4.43;2.47;;;4.00;99.90;;;;;;6155469;23;20664;-87
2024/03/07 00:31:46;;;;;;;2.60;2.40;;;4.60;99.90;;;;;;6154061;23;20683;-87
2024/03/07 00:34:15;;;;;;;4.30;3.83;;;4.50;99.90;;;;;;6153850;23;20214;-87
2024/03/07 00:36:42;;;;;;;4.67;4.10;;;4.50;99.90;;;;;;6154539;23;20249;-87
2024/03/07 00:39:14;;;;;;;4.63;4.20;;;3.90;99.90;;;;;;6153747;23;20205;-87
2024/03/07 00:41:40;;;;;;;4.87;4.40;;;4.50;99.90;;;;;;6156162;23;20182;-87
2024/03/07 00:44:08;;;;;;;3.87;3.63;;;4.30;99.90;;;;;;6179181;23;20265;-88
2024/03/07 00:46:36;;;;;;;4.17;2.47;;;4.40;99.90;;;;;;6178186;23;20268;-88
2024/03/07 00:49:02;;;;;;;3.87;3.57;;;4.20;99.90;;;;;;6153953;23;20371;-90
2024/03/07 00:51:28;;;;;;;3.47;3.27;;;4.20;99.90;;;;;;6178601;23;20652;-88
2024/03/07 00:53:54;;;;;;;3.67;3.43;;;4.20;99.90;;;;;;6153853;23;20534;-88
2024/03/07 00:56:21;;;;;;;3.63;3.30;;;4.00;99.90;;;;;;6154488;23;20269;-88
2024/03/07 00:58:48;;;;;;;5.20;3.93;;;4.00;99.90;;;;;;6154166;23;20308;-87
2024/03/07 01:01:15;;;;;;;3.33;2.67;;;3.70;99.90;;;;;;6153267;23;20206;-88
2024/03/07 01:03:41;;;;;;;4.57;4.17;;;3.90;99.90;;;;;;6154265;23;20289;-89
2024/03/07 01:06:09;;;;;;;6.03;3.07;;;3.70;99.90;;;;;;6153374;23;20314;-87
2024/03/07 01:08:36;;;;;;;2.17;2.03;;;4.20;99.90;;;;;;6179382;23;20178;-87
2024/03/07 01:11:09;;;;;;;3.23;2.63;;;3.80;99.90;;;;;;6153472;23;20211;-88
2024/03/07 01:13:39;;;;;;;4.40;4.00;;;3.90;99.90;;;;;;6178752;23;20217;-88
2024/03/07 01:16:05;;;;;;;3.97;3.57;;;3.70;99.90;;;;;;6153741;23;21031;-87
2024/03/07 01:18:34;;;;;;;7.37;3.37;;;3.70;99.90;;;;;;6153408;23;20206;-87
2024/03/07 01:21:02;;;;;;;2.70;2.50;;;4.30;99.90;;;;;;6178750;23;20257;-88
2024/03/07 01:23:31;;;;;;;2.97;2.73;;;3.70;99.90;;;;;;6154782;23;20209;-88
2024/03/07 01:25:57;;;;;;;4.63;3.00;;;4.30;99.90;;;;;;6155290;23;20198;-89
2024/03/07 01:28:24;;;;;;;2.33;2.23;;;3.70;99.90;;;;;;6179985;23;20629;-87
2024/03/07 01:30:51;;;;;;;2.33;2.23;;;4.00;99.90;;;;;;6154803;23;20230;-88
2024/03/07 01:33:17;;;;;;;3.37;1.80;;;3.60;99.90;;;;;;6180249;23;20277;-87
2024/03/07 01:35:42;;;;;;;1.37;1.20;;;3.70;99.90;;;;;;6154653;23;20209;-87
2024/03/07 01:38:10;;;;;;;1.40;1.23;;;3.50;99.90;;;;;;6155787;23;20193;-87
2024/03/07 01:40:36;;;;;;;2.83;2.63;;;4.00;99.90;;;;;;6155611;23;20198;-88
2024/03/07 01:43:02;;;;;;;3.27;2.90;;;4.10;99.90;;;;;;6154910;23;20218;-87
2024/03/07 01:45:28;;;;;;;2.53;2.27;;;3.40;99.90;;;;;;6155220;23;20676;-87
2024/03/07 01:47:57;;;;;;;8.33;3.30;;;4.00;99.90;;;;;;6155410;23;20175;-88
2024/03/07 01:50:23;;;;;;;3.47;3.27;;;4.00;99.90;;;;;;6181035;23;20190;-88
2024/03/07 01:52:51;;;;;;;4.47;3.10;;;3.90;99.90;;;;;;6155033;23;20310;-88
2024/03/07 01:55:18;;;;;;;4.20;3.97;;;3.40;99.90;;;;;;6154886;23;20242;-88
2024/03/07 01:57:45;;;;;;;3.50;3.20;;;3.40;99.90;;;;;;6154977;23;20206;-87
2024/03/07 02:00:11;;;;;;;4.63;4.20;;;3.40;99.90;;;;;;6180243;23;20204;-88
2024/03/07 02:02:37;;;;;;;6.47;2.93;;;3.70;99.90;;;;;;6155933;23;20681;-87
2024/03/07 02:05:04;;;;;;;3.40;1.90;;;3.50;99.90;;;;;;6155180;23;20415;-89
2024/03/07 02:07:30;;;;;;;4.00;3.70;;;3.50;99.90;;;;;;6179364;23;20278;-88
2024/03/07 02:10:03;;;;;;;4.03;3.83;;;3.20;99.90;;;;;;6155045;23;20745;-88
2024/03/07 02:12:30;;;;;;;2.53;2.43;;;3.20;99.90;;;;;;6154753;23;20201;-88
2024/03/07 02:14:59;;;;;;;4.90;3.83;;;3.10;99.90;;;;;;6154657;23;20171;-88
2024/03/07 02:17:26;;;;;;;4.93;4.53;;;3.60;99.90;;;;;;6180564;23;20233;-88
2024/03/07 02:19:52;;;;;;;3.00;2.33;;;3.30;99.90;;;;;;6154894;23;20952;-87
2024/03/07 02:22:19;;;;;;;3.23;1.83;;;3.20;99.90;;;;;;6179067;23;20202;-91
2024/03/07 02:24:45;;;;;;;2.37;2.13;;;3.60;99.90;;;;;;6154868;23;20220;-88
2024/03/07 02:27:12;;;;;;;3.67;3.47;;;3.60;99.90;;;;;;6179153;23;20250;-89
2024/03/07 02:29:37;;;;;;;2.30;2.20;;;3.10;99.90;;;;;;6180246;23;20182;-88
2024/03/07 02:32:04;;;;;;;1.57;1.47;;;3.00;99.90;;;;;;6154694;23;20544;-88
2024/03/07 02:34:29;;;;;;;2.63;2.53;;;3.30;99.90;;;;;;6155003;23;20682;-88
2024/03/07 02:36:55;;;;;;;5.30;3.10;;;3.20;99.90;;;;;;6153831;23;20213;-89
2024/03/07 02:39:21;;;;;;;2.70;2.33;;;3.30;99.90;;;;;;6154740;23;20206;-88
2024/03/07 02:41:47;;;;;;;1.97;1.43;;;3.60;99.90;;;;;;6179305;23;20171;-87
2024/03/07 02:44:14;;;;;;;2.57;2.47;;;3.60;99.90;;;;;;6155395;23;20225;-88
2024/03/07 02:46:40;;;;;;;2.27;2.17;;;3.20;99.90;;;;;;6155043;23;20285;-89
2024/03/07 02:49:06;;;;;;;2.67;2.57;;;3.60;99.90;;;;;;6154843;23;20222;-88
2024/03/07 02:51:32;;;;;;;3.63;3.03;;;3.50;99.90;;;;;;6154273;23;20287;-88
2024/03/07 02:53:58;;;;;;;2.87;2.73;;;3.10;99.90;;;;;;6179882;23;20507;-88
2024/03/07 02:56:27;;;;;;;6.43;3.53;;;3.10;99.90;;;;;;6155284;23;20178;-88
2024/03/07 02:58:53;;;;;;;4.27;3.87;;;3.00;99.90;;;;;;6154703;23;20214;-88
2024/03/07 03:01:19;;;;;;;2.73;2.63;;;3.40;99.90;;;;;;6154667;23;20280;-88
2024/03/07 03:03:45;;;;;;;3.40;2.97;;;3.40;99.90;;;;;;6179195;23;20249;-88
2024/03/07 03:06:11;;;;;;;4.17;3.77;;;2.90;99.90;;;;;;6154459;23;20206;-89
2024/03/07 03:08:37;;;;;;;9.83;3.30;;;2.90;99.90;;;;;;6155411;23;20236;-89
2024/03/07 03:11:03;;;;;;;3.77;3.53;;;3.10;99.90;;;;;;6154266;23;20202;-89
2024/03/07 03:13:29;;;;;;;4.77;3.33;;;2.80;99.90;;;;;;6179260;23;20206;-88
2024/03/07 03:15:58;;;;;;;3.47;3.20;;;3.20;99.90;;;;;;6153801;23;20210;-88
2024/03/07 03:18:24;;;;;;;1.53;1.43;;;3.20;99.90;;;;;;6153936;23;20206;-87
2024/03/07 03:20:51;;;;;;;2.10;1.93;;;3.20;99.90;;;;;;6179068;23;20174;-88
2024/03/07 03:23:17;;;;;;;3.37;3.17;;;2.70;99.90;;;;;;6155460;23;20198;-90
2024/03/07 03:25:42;;;;;;;3.60;3.27;;;3.20;99.90;;;;;;6154774;23;20704;-90
2024/03/07 03:28:12;;;;;;;4.13;3.83;;;3.10;99.90;;;;;;6154222;23;20202;-91
2024/03/07 03:30:41;;;;;;;3.87;3.67;;;2.70;99.90;;;;;;6155272;23;20516;-90
2024/03/07 03:33:07;;;;;;;3.20;2.93;;;2.60;99.90;;;;;;6155117;23;20209;-87
2024/03/07 03:35:34;;;;;;;3.33;3.13;;;2.50;99.90;;;;;;6179568;23;20174;-87
2024/03/07 03:38:00;;;;;;;2.67;2.47;;;2.50;99.90;;;;;;6179045;23;20534;-88
2024/03/07 03:40:26;;;;;;;2.93;2.73;;;2.60;99.90;;;;;;6179182;23;20273;-89
2024/03/07 03:42:52;;;;;;;2.77;2.57;;;2.30;99.90;;;;;;6153956;23;20230;-88
2024/03/07 03:45:18;;;;;;;5.60;1.97;;;2.30;99.90;;;;;;6178665;23;20198;-88
2024/03/07 03:47:45;;;;;;;3.97;2.10;;;2.40;99.90;;;;;;6179155;23;20171;-88
2024/03/07 03:50:12;;;;;;;2.47;2.37;;;2.80;99.90;;;;;;6179720;23;20171;-88
2024/03/07 03:52:40;;;;;;;2.23;2.13;;;2.70;99.90;;;;;;6154818;23;20714;-88
2024/03/07 03:55:09;;;;;;;2.67;2.30;;;2.30;99.90;;;;;;6178850;23;20198;-88
2024/03/07 03:57:35;;;;;;;2.60;2.40;;;2.60;99.90;;;;;;6178921;23;20256;-89
2024/03/07 04:00:09;;;;;;;3.67;3.47;;;2.60;99.90;;;;;;6179143;23;20215;-89
2024/03/07 04:02:36;;;;;;;5.77;4.73;;;2.70;99.90;;;;;;6156597;23;20538;-89
2024/03/07 04:05:03;;;;;;;2.13;2.03;;;2.20;99.90;;;;;;6154476;23;20210;-89
2024/03/07 04:07:31;;;;;;;2.87;2.67;;;2.40;99.90;;;;;;6154215;23;20655;-89
2024/03/07 04:10:02;;;;;;;4.33;3.97;;;2.40;99.90;;;;;;6154805;23;20234;-88
2024/03/07 04:12:29;;;;;;;1.93;1.20;;;2.40;99.90;;;;;;6179219;23;20229;-89
2024/03/07 04:14:55;;;;;;;2.60;2.40;;;2.70;99.90;;;;;;6153964;23;20167;-88
2024/03/07 04:17:21;;;;;;;3.73;1.37;;;2.50;99.90;;;;;;6155029;23;20258;-88
2024/03/07 04:19:48;;;;;;;2.03;1.37;;;2.80;99.90;;;;;;6178290;23;20677;-88
2024/03/07 04:22:13;;;;;;;3.23;3.03;;;2.30;99.90;;;;;;6153991;23;20278;-88
2024/03/07 04:24:40;;;;;;;1.20;1.17;;;2.30;99.90;;;;;;6154238;23;20238;-88
2024/03/07 04:27:06;;;;;;;2.83;2.73;;;2.40;99.90;;;;;;6154326;23;20632;-87
2024/03/07 04:29:35;;;;;;;2.83;2.63;;;2.30;99.90;;;;;;6154664;23;20186;-88
2024/03/07 04:32:03;;;;;;;3.23;3.03;;;2.50;99.90;;;;;;6153671;23;20206;-88
2024/03/07 04:34:30;;;;;;;4.90;4.50;;;2.70;99.90;;;;;;6178819;23;20530;-88
2024/03/07 04:36:58;;;;;;;4.17;3.87;;;2.50;99.90;;;;;;6178926;23;20202;-88
2024/03/07 04:39:32;;;;;;;4.87;3.23;;;2.70;99.90;;;;;;6154157;23;20194;-87
2024/03/07 04:42:05;;;;;;;3.40;3.30;;;2.40;99.90;;;;;;6155716;23;20155;-88
2024/03/07 04:44:32;;;;;;;3.87;3.53;;;2.20;99.90;;;;;;6154877;23;20187;-88
2024/03/07 04:47:00;;;;;;;2.97;2.67;;;2.50;99.90;;;;;;6153720;23;20579;-88
2024/03/07 04:49:30;;;;;;;3.43;3.23;;;2.30;99.90;;;;;;6178668;23;20205;-89
2024/03/07 04:51:58;;;;;;;3.23;1.90;;;2.30;99.90;;;;;;6178153;23;20232;-88
2024/03/07 04:54:24;;;;;;;3.37;3.20;;;2.60;99.90;;;;;;6178958;23;20597;-88
2024/03/07 04:56:52;;;;;;;2.53;2.43;;;2.00;99.90;;;;;;6178893;23;20179;-88
2024/03/07 04:59:21;;;;;;;5.87;3.63;;;2.20;99.90;;;;;;6179649;23;20203;-88
2024/03/07 05:01:49;;;;;;;3.77;3.57;;;2.50;99.90;;;;;;6155826;23;20210;-90
2024/03/07 05:04:16;;;;;;;3.67;3.47;;;2.20;99.90;;;;;;6180524;23;20290;-88
2024/03/07 05:06:43;;;;;;;3.27;3.07;;;2.40;99.90;;;;;;6155852;23;20210;-88
2024/03/07 05:09:21;;;;;;;3.17;1.83;;;2.00;99.90;;;;;;6156102;23;20213;-88
2024/03/07 05:11:47;;;;;;;3.07;1.73;;;2.10;99.90;;;;;;6181054;23;20159;-89
2024/03/07 05:14:13;;;;;;;6.43;4.70;;;2.00;99.90;;;;;;6157302;23;20181;-88
2024/03/07 05:16:38;;;;;;;6.97;3.30;;;2.50;99.90;;;;;;6155319;23;20241;-88
2024/03/07 05:19:05;;;;;;;2.93;1.90;;;2.00;99.90;;;;;;6155431;23;20278;-87
2024/03/07 05:24:00;;;;;;;1.77;1.70;;;2.30;99.90;;;;;;6178479;23;20294;-89
2024/03/07 05:26:26;;;;;;;3.13;2.63;;;2.50;99.90;;;;;;6155792;23;20175;-89
2024/03/07 05:28:54;;;;;;;3.00;2.53;;;2.10;99.90;;;;;;6155627;23;20217;-88
2024/03/07 05:31:21;;;;;;;2.60;2.47;;;2.40;99.90;;;;;;6156097;23;20302;-88
2024/03/07 05:33:47;;;;;;;4.67;2.37;;;2.20;99.90;;;;;;6154826;23;20210;-87
2024/03/07 05:36:16;;;;;;;2.43;2.33;;;2.20;99.90;;;;;;6155096;23;20209;-89
2024/03/07 05:38:45;;;;;;;2.93;2.57;;;2.30;99.90;;;;;;6154933;23;20197;-89
2024/03/07 05:41:14;;;;;;;1.90;1.80;;;2.10;99.90;;;;;;6180760;23;20174;-88
2024/03/07 05:43:40;;;;;;;1.87;1.80;;;2.00;99.90;;;;;;6155957;23;20202;-87
2024/03/07 05:46:07;;;;;;;1.00;1.00;;;2.60;99.90;;;;;;6180275;23;20273;-88
2024/03/07 05:48:33;;;;;;;2.47;2.27;;;2.60;99.90;;;;;;6155406;23;20202;-88
2024/03/07 05:50:59;;;;;;;3.50;1.73;;;2.60;99.90;;;;;;6180303;23;20226;-88
2024/03/07 05:53:25;;;;;;;2.53;2.43;;;2.10;99.90;;;;;;6156140;23;20246;-88
2024/03/07 05:55:52;;;;;;;2.23;2.10;;;2.00;99.90;;;;;;6155176;23;20276;-91
2024/03/07 05:58:19;;;;;;;3.50;3.30;;;2.10;99.90;;;;;;6179400;23;20353;-90
2024/03/07 06:00:52;;;;;;;1.40;1.30;;;2.30;99.90;;;;;;6155548;23;20225;-89
2024/03/07 06:03:19;;;;;;;2.53;2.33;;;2.10;99.90;;;;;;6179956;23;20210;-88
2024/03/07 06:05:49;;;;;;;3.30;3.07;;;2.40;99.90;;;;;;6179091;23;20276;-88
2024/03/07 06:08:18;;;;;;;2.03;1.87;;;2.50;99.90;;;;;;6156273;23;20175;-88
2024/03/07 06:10:45;;;;;;;1.97;1.87;;;2.70;99.90;;;;;;6154705;23;20237;-87
2024/03/07 06:13:15;;;;;;;2.33;2.23;;;2.40;99.90;;;;;;6155286;23;20285;-88
2024/03/07 06:15:45;;;;;;;4.43;4.10;;;2.80;99.90;;;;;;6179344;23;20325;-88
2024/03/07 06:18:15;;;;;;;2.80;2.63;;;2.40;99.90;;;;;;6155594;23;20269;-88
2024/03/07 06:20:42;;;;;;;2.50;2.40;;;2.90;99.90;;;;;;6154263;23;20174;-89
2024/03/07 06:23:11;;;;;;;3.23;2.93;;;2.50;99.90;;;;;;6155816;23;20206;-86
2024/03/07 06:25:47;;;;;;;2.17;2.07;;;2.50;99.90;;;;;;6179401;23;20198;-87
2024/03/07 06:28:13;;;;;;;2.50;2.37;;;2.50;99.90;;;;;;6179944;23;20209;-88
2024/03/07 06:30:41;;;;;;;2.83;1.83;;;2.60;99.90;;;;;;6180438;23;20195;-88
2024/03/07 06:33:07;;;;;;;2.33;2.17;;;3.00;99.90;;;;;;6155746;23;21072;-88
2024/03/07 06:35:39;;;;;;;2.83;2.63;;;2.80;99.90;;;;;;6155177;23;20178;-88
2024/03/07 06:38:11;;;;;;;4.23;3.93;;;3.10;99.90;;;;;;6156252;23;20651;-88
2024/03/07 06:40:42;;;;;;;2.07;1.90;;;2.80;99.90;;;;;;6154894;23;20198;-88
2024/03/07 06:43:11;;;;;;;3.77;2.33;;;2.90;99.90;;;;;;6179820;23;20735;-89
2024/03/07 06:45:38;;;;;;;4.00;3.77;;;2.90;99.90;;;;;;6178472;23;20215;-87
2024/03/07 06:48:07;;;;;;;3.87;3.53;;;3.40;99.90;;;;;;6154599;23;20199;-88
2024/03/07 06:50:37;;;;;;;5.10;3.70;;;3.30;99.90;;;;;;6178980;23;20177;-87
2024/03/07 06:53:06;;;;;;;8.03;2.67;;;3.40;99.90;;;;;;6179552;23;20705;-89
2024/03/07 06:55:36;;;;;;;8.00;4.10;;;3.20;99.90;;;;;;6179947;23;20214;-88
2024/03/07 06:58:05;;;;;;;3.47;3.17;;;3.50;99.90;;;;;;6155165;23;20206;-88
2024/03/07 07:00:37;;;;;;;7.10;3.37;;;3.40;99.90;;;;;;6178961;23;20222;-88
2024/03/07 07:03:03;;;;;;;5.63;3.17;;;3.80;99.90;;;;;;6179383;23;20207;-88
2024/03/07 07:05:29;;;;;;;2.23;2.13;;;3.50;99.90;;;;;;6155133;23;20174;-90
2024/03/07 07:07:55;;;;;;;4.37;3.83;;;3.90;99.90;;;;;;6154592;23;20206;-89
2024/03/07 07:10:24;;;;;;;6.63;4.90;;;3.80;99.90;;;;;;6154337;23;20682;-88
2024/03/07 07:12:51;;;;;;;2.23;2.13;;;3.90;99.90;;;;;;6154741;23;20269;-91
2024/03/07 07:15:18;;;;;;;5.37;4.87;;;4.00;99.90;;;;;;6155214;23;20210;-88
2024/03/07 07:17:49;;;;;;;2.83;2.63;;;3.90;99.90;;;;;;6154830;23;20577;-88
2024/03/07 07:20:16;;;;;;;4.83;2.97;;;4.30;99.90;;;;;;6155468;23;20163;-88
2024/03/07 07:22:43;;;;;;;4.07;3.33;;;4.00;99.90;;;;;;6154030;23;20210;-89
2024/03/07 07:25:15;;;;;;;3.13;2.97;;;4.50;99.90;;;;;;6180519;23;20199;-88
2024/03/07 07:27:54;;;;;;;4.13;3.83;;;4.30;99.90;;;;;;6155814;23;20202;-88
2024/03/07 07:30:26;;;;;;;3.63;3.43;;;4.20;99.90;;;;;;6154679;23;20210;-88
2024/03/07 07:32:53;;;;;;;2.70;2.60;;;4.30;99.90;;;;;;6154844;23;20159;-88
2024/03/07 07:35:20;;;;;;;4.43;4.10;;;4.30;99.90;;;;;;6179278;23;20171;-89
2024/03/07 07:37:48;;;;;;;5.50;4.13;;;4.70;99.90;;;;;;6178858;23;20206;-88
2024/03/07 07:40:19;;;;;;;4.87;4.53;;;4.20;99.90;;;;;;6179434;23;20199;-88
2024/03/07 07:42:51;;;;;;;3.60;3.23;;;4.70;99.90;;;;;;6168019;23;20289;-88
2024/03/07 07:45:18;;;;;;;3.67;3.43;;;4.30;99.90;;;;;;6180724;23;20296;-91
2024/03/07 07:47:46;;;;;;;4.77;4.40;;;4.60;99.90;;;;;;6154645;23;20174;-90
2024/03/07 07:50:13;;;;;;;5.33;3.87;;;4.80;99.90;;;;;;6180087;23;20198;-88
2024/03/07 07:52:50;;;;;;;6.37;5.10;;;4.60;99.90;;;;;;6154523;23;20672;-88
2024/03/07 07:55:20;;;;;;;3.97;2.07;;;4.50;99.90;;;;;;6155964;23;20205;-88
2024/03/07 07:57:55;;;;;;;3.83;2.83;;;4.80;99.90;;;;;;6178452;23;20205;-89
2024/03/07 08:00:28;;;;;;;5.97;5.50;;;4.90;99.90;;;;;;6179567;23;20580;-89
2024/03/07 08:02:59;;;;;;;4.97;3.37;;;4.50;99.90;;;;;;6179062;23;20238;-88
2024/03/07 08:05:35;;;;;;;3.23;2.93;;;4.60;99.90;;;;;;6180537;23;20162;-90
2024/03/07 08:08:18;;;;;;;4.33;4.13;;;4.90;99.90;;;;;;6178785;23;20651;-90
2024/03/07 08:10:49;;;;;;;14.97;5.00;;;4.60;99.90;;;;;;6159591;23;20222;-90
2024/03/07 08:13:39;;;;;;;3.40;3.20;;;4.90;99.90;;;;;;6178793;23;20232;-89
2024/03/07 08:16:06;;;;;;;4.97;4.63;;;4.90;99.90;;;;;;6163992;23;20233;-89
2024/03/07 08:18:32;;;;;;;6.23;4.43;;;4.60;99.90;;;;;;6178948;23;20213;-90
2024/03/07 08:21:00;;;;;;;5.13;4.73;;;4.70;99.90;;;;;;6178715;23;20170;-89
2024/03/07 08:23:31;;;;;;;4.20;3.27;;;4.70;99.90;;;;;;6179388;23;20913;-90
2024/03/07 08:26:02;;;;;;;5.87;5.37;;;4.70;99.90;;;;;;6155308;23;20730;-89
2024/03/07 08:28:28;;;;;;;3.50;3.20;;;5.10;99.90;;;;;;6154386;23;20253;-89
2024/03/07 08:30:54;;;;;;;6.83;2.40;;;5.10;99.90;;;;;;6167054;23;20623;-90
2024/03/07 08:33:21;;;;;;;2.27;2.07;;;4.90;99.90;;;;;;6179489;23;20202;-89
2024/03/07 08:35:49;;;;;;;3.00;2.80;;;4.90;99.90;;;;;;6180456;23;20206;-90
2024/03/07 08:38:17;;;;;;;2.43;2.30;;;5.00;99.90;;;;;;6157861;23;20166;-89
2024/03/07 08:40:44;;;;;;;4.83;3.57;;;;;;;;;;6156936;23;20178;-92
2024/03/07 08:43:10;;;;;;;5.67;3.20;;;;;;;;;;6181301;23;20297;-89
2024/03/07 08:45:36;;;;;;;3.27;2.27;;;;;;;;;;6182244;23;20696;-89
2024/03/07 08:48:09;;;;;;;2.63;1.23;;;;;;;;;;6180087;23;20237;-89
2024/03/07 08:50:37;;;;;;;2.73;2.60;;;;;;;;;;6182048;23;20186;-88
2024/03/07 08:53:07;;;;;;;1.97;1.87;;;;;;;;;;6180640;23;20590;-89
2024/03/07 08:55:35;;;;;;;4.07;2.93;;;;;;;;;;6181590;23;20258;-91
2024/03/07 08:58:02;;;;;;;6.50;2.03;;;;;;;;;;6157346;23;20729;-89
2024/03/07 09:00:28;;;;;;;5.00;2.77;;;;;;;;;;6182076;23;20206;-88
2024/03/07 09:02:55;;;;;;;1.97;1.83;;;;;;;;;;6156889;23;20174;-88
2024/03/07 09:05:22;;;;;;;2.57;2.37;;;;;;;;;;6157923;23;20292;-89
2024/03/07 09:07:48;;;;;;;5.33;3.20;;;;;;;;;;6155793;23;20306;-89
2024/03/07 09:10:15;;;;;;;7.70;2.27;;;;;;;;;;6155673;23;20210;-89
2024/03/07 09:12:41;;;;;;;6.03;3.30;;;;;;;;;;6156416;23;20203;-88
2024/03/07 09:15:10;;;;;;;2.57;2.43;;;;;;;;;;6156010;23;20712;-88
2024/03/07 09:17:36;;;;;;;4.90;4.40;;;;;;;;;;6180862;23;20174;-89
2024/03/07 09:20:14;;;;;;;1.83;1.73;;;;;;;;;;6155566;23;20234;-88
2024/03/07 09:22:41;;;;;;;4.80;3.07;;;;;;;;;;6179685;23;20202;-89
2024/03/07 09:25:08;;;;;;;1.93;1.83;;;;;;;;;;6180205;23;20283;-88
2024/03/07 09:27:34;;;;;;;4.47;3.43;;;;;;;;;;6180386;23;20213;-87
2024/03/07 09:30:00;;;;;;;5.00;4.60;;;;;;;;;;6179924;23;20214;-88
2024/03/07 09:32:32;;;;;;;7.43;6.90;;;;;;;;;;6156452;23;20175;-88
2024/03/07 09:35:01;;;;;;;4.23;3.63;;;;;;;;;;6156566;23;20686;-88
2024/03/07 09:37:28;;;;;;;4.07;3.53;;;;;;;;;;6180120;23;20502;-89
2024/03/07 09:39:54;;;;;;;4.33;3.93;;;;;;;;;;6154765;23;20253;-88
2024/03/07 09:42:21;;;;;;;5.33;4.80;;;;;;;;;;6155336;23;20198;-89
2024/03/07 09:44:50;;;;;;;6.17;4.67;;;;;;;;;;6180267;23;20202;-89
2024/03/07 09:47:17;;;;;;;2.57;2.23;;;;;;;;;;6181490;23;20198;-90
2024/03/07 09:49:46;;;;;;;8.70;7.80;;;;;;;;;;6181331;23;20213;-91
2024/03/07 09:52:15;;;;;;;7.77;4.43;;;;;;;;;;6156761;23;20706;-90
2024/03/07 09:54:41;;;;;;;5.13;4.77;;;;;;;;;;6156180;23;20210;-89
2024/03/07 09:57:07;;;;;;;4.90;4.43;;;;;;;;;;6180890;23;20202;-90
2024/03/07 09:59:40;;;;;;;4.07;3.67;;;;;;;;;;6181129;23;20282;-89
2024/03/07 10:02:07;;;;;;;4.63;4.23;;;;;;;;;;6180618;23;20655;-91
2024/03/07 10:04:40;;;;;;;3.37;3.10;;;;;;;;;;6155631;23;20692;-89
2024/03/07 10:07:12;;;;;;;3.03;2.83;;;;;;;;;;6179768;23;20297;-88
2024/03/07 10:09:40;;;;;;;5.10;3.13;;;;;;;;;;6156100;23;20267;-89
2024/03/07 10:12:12;;;;;;;4.37;2.63;;;;;;;;;;6155771;23;20209;-89
2024/03/07 10:14:58;;;;;;;5.30;1.70;;;;;;;;;;6180777;23;20214;-89
2024/03/07 10:17:29;;;;;;;2.03;1.63;;;;;;;;;;6179716;23;20194;-88
2024/03/07 10:20:00;;;;;;;1.63;1.53;;;;;;;;;;6156106;23;20206;-88
2024/03/07 10:22:26;;;;;;;2.60;2.23;;;;;;;;;;6179828;23;20210;-88
2024/03/07 10:24:53;;;;;;;6.53;4.10;;;;;;;;;;6179629;23;20226;-87
2024/03/07 10:27:20;;;;;;;2.43;2.23;;;;;;;;;;6179728;23;20210;-88
2024/03/07 10:29:52;;;;;;;2.13;2.03;;;;;;;;;;6179663;23;20175;-88
2024/03/07 10:32:22;;;;;;;1.50;1.50;;;;;;;;;;6180893;23;20179;-88
2024/03/07 10:34:50;;;;;;;2.50;2.30;;;;;;;;;;6155026;23;20210;-88
2024/03/07 10:37:17;;;;;;;2.17;2.07;;;;;;;;;;6179530;23;20206;-88
2024/03/07 10:39:44;;;;;;;3.43;2.10;;;;;;;;;;6179288;23;20214;-87
2024/03/07 10:42:15;;;;;;;2.63;2.47;;;;;;;;;;6154433;23;20239;-87
2024/03/07 10:44:44;;;;;;;2.97;2.80;;;;;;;;;;6179778;23;20800;-89
2024/03/07 10:47:16;;;;;;;2.63;2.43;;;;;;;;;;6180116;23;20197;-90
2024/03/07 10:50:04;;;;;;;5.90;5.17;;;;;;;;;;6178932;23;20210;-87
2024/03/07 10:52:40;;;;;;;3.53;3.03;;;;;;;;;;6180577;23;20518;-87
2024/03/07 10:55:17;;;;;;;2.47;2.27;;;;;;;;;;6178869;23;20213;-87
2024/03/07 10:57:58;;;;;;;3.37;1.97;;;;;;;;;;6178511;23;20237;-87
2024/03/07 11:00:30;;;;;;;3.40;3.13;;;;;;;;;;6179403;23;20268;-87
2024/03/07 11:02:56;;;;;;;2.73;2.50;;;;;;;;;;6179072;23;20209;-88
2024/03/07 11:05:29;;;;;;;2.13;1.90;;;;;;;;;;6155304;23;20503;-88
2024/03/07 11:07:59;;;;;;;3.93;3.73;;;;;;;;;;6179264;23;20585;-89
2024/03/07 11:10:25;;;;;;;4.60;2.37;;;;;;;;;;6179299;23;20538;-87
2024/03/07 11:12:52;;;;;;;3.93;3.70;;;;;;;;;;6154586;23;20249;-87
2024/03/07 11:15:22;;;;;;;2.67;2.57;;;;;;;;;;6154598;23;20644;-88
2024/03/07 11:17:49;;;;;;;2.03;1.93;;;;;;;;;;6179136;23;20170;-88
2024/03/07 11:20:25;;;;;;;3.10;2.07;;;;;;;;;;6155113;23;20173;-87
2024/03/07 11:22:55;;;;;;;9.10;3.57;;;;;;;;;;6153734;23;20217;-87
2024/03/07 11:25:21;;;;;;;1.47;1.47;;;;;;;;;;6178387;23;20210;-88
2024/03/07 11:27:53;;;;;;;4.60;1.63;;;;;;;;;;6178808;23;20206;-88
2024/03/07 11:30:25;;;;;;;5.63;3.63;;;;;;;;;;6178717;23;20199;-88
2024/03/07 11:32:54;;;;;;;4.50;3.93;;;;;;;;;;6178957;23;20159;-88
2024/03/07 11:35:36;;;;;;;2.60;2.40;;;;;;;;;;6155237;23;21017;-89
2024/03/07 11:38:05;;;;;;;3.97;3.83;;;;;;;;;;6178881;23;20226;-89
2024/03/07 11:40:31;;;;;;;4.77;4.37;;;;;;;;;;6154865;23;20207;-89
2024/03/07 11:43:04;;;;;;;2.47;2.27;;;;;;;;;;6178468;23;20230;-86
2024/03/07 11:45:33;;;;;;;3.20;1.97;;;;;;;;;;6178481;23;20226;-86
2024/03/07 11:48:09;;;;;;;1.47;1.43;;;;;;;;;;6178545;23;20170;-88
2024/03/07 11:50:39;;;;;;;2.00;1.90;;;;;;;;;;6179396;23;20238;-88
2024/03/07 11:53:06;;;;;;;2.40;2.20;;;;;;;;;;6154311;23;20228;-89
2024/03/07 11:55:45;;;;;;;3.03;2.87;;;;;;;;;;6179334;23;20206;-88
2024/03/07 11:58:21;;;;;;;4.40;2.50;;;;;;;;;;6179866;23;20249;-90
2024/03/07 12:00:47;;;;;;;4.60;2.37;;;;;;;;;;6179416;23;20210;-89
2024/03/07 12:03:18;;;;;;;3.33;3.03;;;;;;;;;;6155764;23;20206;-88
2024/03/07 12:05:46;;;;;;;3.60;3.33;;;;;;;;;;6155454;23;20174;-90
2024/03/07 12:08:12;;;;;;;2.63;2.43;;;;;;;;;;6156462;23;20274;-90
2024/03/07 12:10:53;;;;;;;3.23;2.97;;;;;;;;;;6179357;23;20851;-89
2024/03/07 12:13:19;;;;;;;1.60;1.50;;;;;;;;;;6155005;23;20680;-90
2024/03/07 12:15:51;;;;;;;8.97;4.07;;;;;;;;;;6152365;23;20206;-89
2024/03/07 12:18:25;;;;;;;3.77;3.47;;;;;;;;;;6154536;23;20670;-91
2024/03/07 12:20:57;;;;;;;2.43;2.27;;;;;;;;;;6139103;23;20612;-89
2024/03/07 12:23:37;;;;;;;4.57;3.13;;;;;;;;;;6155897;23;20195;-88
2024/03/07 12:26:30;;;;;;;3.77;3.47;;;;;;;;;;6174734;23;20229;-88
2024/03/07 12:29:48;;;;;;;2.70;2.47;;;;;;;;;;6053192;23;20213;-89
2024/03/07 12:32:49;;;;;;;3.50;3.33;;;;;;;;;;6051299;23;20372;-88
2024/03/07 12:35:21;;;;;;;1.73;1.67;;;;;;;;;;6175094;23;20197;-89
2024/03/07 12:38:17;;;;;;;1.40;1.30;;;;;;;;;;6143481;23;20301;-89
2024/03/07 12:40:51;;;;;;;5.03;3.17;;;;;;;;;;6126593;23;20946;-88
2024/03/07 12:47:57;;;;;;;2.53;1.43;;;;;;;;;;6088492;23;20172;-88
2024/03/07 12:50:45;;;;;;;;;;;;;;;;;;;;;
2024/03/07 12:53:58;;;;;;;2.33;1.83;;;;;;;;;;5974530;24;21035;-87
2024/03/07 12:56:52;;;;;;;;;;;;;;;;;;;;;
2024/03/07 13:04:00;;;;;;;;;;;;;;;;;;;;;
2024/03/07 13:07:04;;;;;;;2.13;2.00;;;;;;;;;;5972765;23;20263;-88
2024/03/07 13:12:58;;;;;;;;;;;;;;;;;;;;;
2024/03/07 13:15:56;;;;;;;5.53;3.20;;;;;;;;;;5995092;23;20232;-88
2024/03/07 13:22:49;;;;;;;0.70;0.57;;;;;;;;;;5925449;24;20264;-87
2024/03/07 13:25:32;;;;;;;3.67;3.30;;;;;;;;;;5889168;24;20279;-86
2024/03/07 13:31:22;;;;;;;2.87;2.70;;;;;;;;;;5891320;24;20212;-88
2024/03/07 13:34:35;;;;;;;;;;;;;;;;;;;;;
2024/03/07 13:52:10;;;;;;;2.00;1.90;;;;;;;;;;5898323;24;20230;-87
2024/03/07 13:54:40;;;;;;;6.37;4.50;;;;;;;;;;6005825;23;20205;-86
2024/03/07 13:57:06;;;;;;;2.30;2.07;;;;;;;;;;6090041;23;20276;-88
2024/03/07 13:59:53;;;;;;;5.10;3.10;;;;;;;;;;6178020;23;20758;-87
2024/03/07 14:02:37;;;;;;;2.53;2.33;;;;;;;;;;6205467;23;20200;-87
2024/03/07 14:05:22;;;;;;;3.60;1.47;;;;;;;;;;6179778;23;20210;-90
2024/03/07 14:08:09;;;;;;;4.27;3.10;;;;;;;;;;6180596;23;20214;-88
2024/03/07 14:10:41;;;;;;;6.63;2.13;;;;;;;;;;6179654;23;20198;-86
2024/03/07 14:13:26;;;;;;;2.13;1.97;;;;;;;;;;6180201;23;20660;-89
2024/03/07 14:15:56;;;;;;;3.47;3.17;;;;;;;;;;6179069;23;20207;-87
2024/03/07 14:18:41;;;;;;;2.20;1.60;;;;;;;;;;6180100;23;20203;-88
2024/03/07 14:21:16;;;;;;;2.90;2.13;;;;;;;;;;6180217;23;20203;-87
2024/03/07 14:23:56;;;;;;;2.57;2.43;;;;;;;;;;6180046;23;20189;-88
2024/03/07 14:26:41;;;;;;;6.37;3.13;;;;;;;;;;6180281;23;20588;-87
2024/03/07 14:29:10;;;;;;;4.20;3.80;;;;;;;;;;6179595;23;20195;-87
2024/03/07 14:31:39;;;;;;;3.40;3.17;;;;;;;;;;6178328;23;20202;-87